sensor_id;sensor_type;location;lat;lon;timestamp;P1;durP1;ratioP1;P2;durP2;ratioP2
7154;SDS011;3619;53.784;10.440;2023-03-11T00:01:42;2.20;;;2.10;;
7154;SDS011;3619;53.784;10.440;2023-03-11T00:04:09;2.10;;;2.00;;
7154;SDS011;3619;53.784;10.440;2023-03-11T00:06:38;2.40;;;2.30;;
7154;SDS011;3619;53.784;10.440;2023-03-11T00:09:05;2.17;;;2.07;;
7154;SDS011;3619;53.784;10.440;2023-03-11T00:11:31;2.23;;;2.13;;
7154;SDS011;3619;53.784;10.440;2023-03-11T00:13:58;2.07;;;1.97;;
7154;SDS011;3619;53.784;10.440;2023-03-11T00:16:25;1.50;;;1.50;;
7154;SDS011;3619;53.784;10.440;2023-03-11T00:18:52;2.50;;;2.40;;
7154;SDS011;3619;53.784;10.440;2023-03-11T00:21:19;2.30;;;2.20;;
7154;SDS011;3619;53.784;10.440;2023-03-11T00:23:47;2.33;;;2.23;;
7154;SDS011;3619;53.784;10.440;2023-03-11T00:26:13;2.47;;;2.37;;
7154;SDS011;3619;53.784;10.440;2023-03-11T00:28:40;2.93;;;2.83;;
7154;SDS011;3619;53.784;10.440;2023-03-11T00:31:07;2.73;;;2.63;;
7154;SDS011;3619;53.784;10.440;2023-03-11T00:33:36;2.80;;;2.70;;
7154;SDS011;3619;53.784;10.440;2023-03-11T00:36:04;2.87;;;2.77;;
7154;SDS011;3619;53.784;10.440;2023-03-11T00:38:32;2.90;;;2.80;;
7154;SDS011;3619;53.784;10.440;2023-03-11T00:41:00;2.27;;;2.17;;
7154;SDS011;3619;53.784;10.440;2023-03-11T00:43:26;2.60;;;2.50;;
7154;SDS011;3619;53.784;10.440;2023-03-11T00:45:53;3.00;;;2.90;;
7154;SDS011;3619;53.784;10.440;2023-03-11T00:48:20;2.87;;;2.77;;
7154;SDS011;3619;53.784;10.440;2023-03-11T00:50:47;3.00;;;2.90;;
7154;SDS011;3619;53.784;10.440;2023-03-11T00:53:14;2.97;;;2.87;;
7154;SDS011;3619;53.784;10.440;2023-03-11T00:55:41;72.00;;;67.10;;
7154;SDS011;3619;53.784;10.440;2023-03-11T00:58:10;2.77;;;2.67;;
7154;SDS011;3619;53.784;10.440;2023-03-11T01:00:37;3.17;;;3.07;;
7154;SDS011;3619;53.784;10.440;2023-03-11T01:03:04;2.70;;;2.60;;
7154;SDS011;3619;53.784;10.440;2023-03-11T01:05:32;3.27;;;3.17;;
7154;SDS011;3619;53.784;10.440;2023-03-11T01:08:00;3.50;;;3.40;;
7154;SDS011;3619;53.784;10.440;2023-03-11T01:10:28;4.13;;;4.03;;
7154;SDS011;3619;53.784;10.440;2023-03-11T01:12:55;3.50;;;3.40;;
7154;SDS011;3619;53.784;10.440;2023-03-11T01:15:25;4.20;;;4.10;;
7154;SDS011;3619;53.784;10.440;2023-03-11T01:17:53;3.77;;;3.67;;
7154;SDS011;3619;53.784;10.440;2023-03-11T01:20:20;3.97;;;3.87;;
7154;SDS011;3619;53.784;10.440;2023-03-11T01:22:47;4.60;;;4.40;;
7154;SDS011;3619;53.784;10.440;2023-03-11T01:25:15;4.07;;;3.97;;
7154;SDS011;3619;53.784;10.440;2023-03-11T01:27:43;3.50;;;3.40;;
7154;SDS011;3619;53.784;10.440;2023-03-11T01:30:12;4.30;;;4.20;;
7154;SDS011;3619;53.784;10.440;2023-03-11T01:32:41;4.67;;;4.47;;
7154;SDS011;3619;53.784;10.440;2023-03-11T01:35:09;4.17;;;4.07;;
7154;SDS011;3619;53.784;10.440;2023-03-11T01:37:37;4.53;;;4.33;;
7154;SDS011;3619;53.784;10.440;2023-03-11T01:40:05;7.27;;;6.97;;
7154;SDS011;3619;53.784;10.440;2023-03-11T01:42:33;4.20;;;4.10;;
7154;SDS011;3619;53.784;10.440;2023-03-11T01:45:00;3.80;;;3.70;;
7154;SDS011;3619;53.784;10.440;2023-03-11T01:47:37;5.07;;;4.87;;
7154;SDS011;3619;53.784;10.440;2023-03-11T01:50:08;4.37;;;4.23;;
7154;SDS011;3619;53.784;10.440;2023-03-11T01:52:38;5.17;;;4.97;;
7154;SDS011;3619;53.784;10.440;2023-03-11T01:55:06;5.70;;;5.50;;
7154;SDS011;3619;53.784;10.440;2023-03-11T01:57:34;5.13;;;4.93;;
7154;SDS011;3619;53.784;10.440;2023-03-11T02:00:03;5.93;;;5.73;;
7154;SDS011;3619;53.784;10.440;2023-03-11T02:02:35;7.20;;;6.90;;
7154;SDS011;3619;53.784;10.440;2023-03-11T02:05:06;7.97;;;7.57;;
7154;SDS011;3619;53.784;10.440;2023-03-11T02:07:34;6.53;;;6.33;;
7154;SDS011;3619;53.784;10.440;2023-03-11T02:10:04;6.40;;;6.20;;
7154;SDS011;3619;53.784;10.440;2023-03-11T02:12:33;6.27;;;6.07;;
7154;SDS011;3619;53.784;10.440;2023-03-11T02:15:01;6.60;;;6.40;;
7154;SDS011;3619;53.784;10.440;2023-03-11T02:17:29;5.17;;;4.97;;
7154;SDS011;3619;53.784;10.440;2023-03-11T02:20:00;7.90;;;7.60;;
7154;SDS011;3619;53.784;10.440;2023-03-11T02:22:39;6.57;;;6.37;;
7154;SDS011;3619;53.784;10.440;2023-03-11T02:25:09;7.60;;;7.30;;
7154;SDS011;3619;53.784;10.440;2023-03-11T02:27:44;6.97;;;6.73;;
7154;SDS011;3619;53.784;10.440;2023-03-11T02:30:14;6.77;;;6.57;;
7154;SDS011;3619;53.784;10.440;2023-03-11T02:32:43;8.07;;;7.77;;
7154;SDS011;3619;53.784;10.440;2023-03-11T02:35:12;6.73;;;6.53;;
7154;SDS011;3619;53.784;10.440;2023-03-11T02:37:42;7.67;;;7.37;;
7154;SDS011;3619;53.784;10.440;2023-03-11T02:40:26;8.27;;;7.97;;
7154;SDS011;3619;53.784;10.440;2023-03-11T02:43:00;7.37;;;7.07;;
7154;SDS011;3619;53.784;10.440;2023-03-11T02:45:30;7.50;;;7.20;;
7154;SDS011;3619;53.784;10.440;2023-03-11T02:47:58;7.63;;;7.33;;
7154;SDS011;3619;53.784;10.440;2023-03-11T02:50:26;8.03;;;7.73;;
7154;SDS011;3619;53.784;10.440;2023-03-11T02:52:55;7.23;;;6.93;;
7154;SDS011;3619;53.784;10.440;2023-03-11T02:55:22;7.23;;;6.93;;
7154;SDS011;3619;53.784;10.440;2023-03-11T02:57:49;7.87;;;7.57;;
7154;SDS011;3619;53.784;10.440;2023-03-11T03:00:17;7.63;;;7.33;;
7154;SDS011;3619;53.784;10.440;2023-03-11T03:02:45;7.70;;;7.40;;
7154;SDS011;3619;53.784;10.440;2023-03-11T03:05:15;8.90;;;8.60;;
7154;SDS011;3619;53.784;10.440;2023-03-11T03:07:45;8.83;;;8.53;;
7154;SDS011;3619;53.784;10.440;2023-03-11T03:10:14;9.67;;;9.27;;
7154;SDS011;3619;53.784;10.440;2023-03-11T03:12:42;9.20;;;8.90;;
7154;SDS011;3619;53.784;10.440;2023-03-11T03:15:09;9.30;;;9.00;;
7154;SDS011;3619;53.784;10.440;2023-03-11T03:17:38;8.43;;;8.13;;
7154;SDS011;3619;53.784;10.440;2023-03-11T03:20:06;8.93;;;8.63;;
7154;SDS011;3619;53.784;10.440;2023-03-11T03:22:36;10.13;;;9.73;;
7154;SDS011;3619;53.784;10.440;2023-03-11T03:25:03;10.37;;;9.97;;
7154;SDS011;3619;53.784;10.440;2023-03-11T03:27:31;11.03;;;10.63;;
7154;SDS011;3619;53.784;10.440;2023-03-11T03:29:59;13.00;;;12.50;;
7154;SDS011;3619;53.784;10.440;2023-03-11T03:32:26;12.50;;;12.00;;
7154;SDS011;3619;53.784;10.440;2023-03-11T03:34:56;14.30;;;13.80;;
7154;SDS011;3619;53.784;10.440;2023-03-11T03:37:23;13.30;;;12.80;;
7154;SDS011;3619;53.784;10.440;2023-03-11T03:39:51;17.87;;;17.17;;
7154;SDS011;3619;53.784;10.440;2023-03-11T03:42:18;15.63;;;15.03;;
7154;SDS011;3619;53.784;10.440;2023-03-11T03:44:44;17.60;;;16.90;;
7154;SDS011;3619;53.784;10.440;2023-03-11T03:47:11;18.10;;;17.40;;
7154;SDS011;3619;53.784;10.440;2023-03-11T03:49:38;19.00;;;18.30;;
7154;SDS011;3619;53.784;10.440;2023-03-11T03:52:07;17.80;;;17.10;;
7154;SDS011;3619;53.784;10.440;2023-03-11T03:54:34;19.80;;;19.07;;
7154;SDS011;3619;53.784;10.440;2023-03-11T03:57:01;21.93;;;21.07;;
7154;SDS011;3619;53.784;10.440;2023-03-11T03:59:29;19.50;;;18.80;;
7154;SDS011;3619;53.784;10.440;2023-03-11T04:01:56;19.20;;;18.50;;
7154;SDS011;3619;53.784;10.440;2023-03-11T04:04:23;16.50;;;15.90;;
7154;SDS011;3619;53.784;10.440;2023-03-11T04:06:50;17.13;;;16.53;;
7154;SDS011;3619;53.784;10.440;2023-03-11T04:09:18;17.57;;;16.90;;
7154;SDS011;3619;53.784;10.440;2023-03-11T04:11:45;17.00;;;16.40;;
7154;SDS011;3619;53.784;10.440;2023-03-11T04:14:11;17.63;;;16.93;;
7154;SDS011;3619;53.784;10.440;2023-03-11T04:16:38;15.27;;;14.67;;
7154;SDS011;3619;53.784;10.440;2023-03-11T04:19:05;16.60;;;16.00;;
7154;SDS011;3619;53.784;10.440;2023-03-11T04:21:32;16.80;;;16.20;;
7154;SDS011;3619;53.784;10.440;2023-03-11T04:23:59;16.03;;;15.43;;
7154;SDS011;3619;53.784;10.440;2023-03-11T04:26:28;17.13;;;16.53;;
7154;SDS011;3619;53.784;10.440;2023-03-11T04:28:55;18.83;;;18.13;;
7154;SDS011;3619;53.784;10.440;2023-03-11T04:31:21;19.63;;;18.93;;
7154;SDS011;3619;53.784;10.440;2023-03-11T04:33:48;18.47;;;17.77;;
7154;SDS011;3619;53.784;10.440;2023-03-11T04:36:15;19.80;;;19.07;;
7154;SDS011;3619;53.784;10.440;2023-03-11T04:38:42;20.57;;;19.77;;
7154;SDS011;3619;53.784;10.440;2023-03-11T04:41:09;21.00;;;20.20;;
7154;SDS011;3619;53.784;10.440;2023-03-11T04:43:37;23.47;;;22.57;;
7154;SDS011;3619;53.784;10.440;2023-03-11T04:46:04;27.63;;;25.87;;
7154;SDS011;3619;53.784;10.440;2023-03-11T04:48:31;26.77;;;25.77;;
7154;SDS011;3619;53.784;10.440;2023-03-11T04:50:58;25.23;;;24.27;;
7154;SDS011;3619;53.784;10.440;2023-03-11T04:53:25;25.37;;;24.40;;
7154;SDS011;3619;53.784;10.440;2023-03-11T04:55:52;30.90;;;29.70;;
7154;SDS011;3619;53.784;10.440;2023-03-11T04:58:19;27.50;;;26.47;;
7154;SDS011;3619;53.784;10.440;2023-03-11T05:00:47;29.07;;;27.97;;
7154;SDS011;3619;53.784;10.440;2023-03-11T05:03:13;31.33;;;30.13;;
7154;SDS011;3619;53.784;10.440;2023-03-11T05:05:40;33.87;;;32.57;;
7154;SDS011;3619;53.784;10.440;2023-03-11T05:08:07;28.77;;;27.67;;
7154;SDS011;3619;53.784;10.440;2023-03-11T05:10:34;33.03;;;31.80;;
7154;SDS011;3619;53.784;10.440;2023-03-11T05:13:01;34.43;;;33.13;;
7154;SDS011;3619;53.784;10.440;2023-03-11T05:15:28;35.87;;;34.47;;
7154;SDS011;3619;53.784;10.440;2023-03-11T05:17:59;36.53;;;35.13;;
7154;SDS011;3619;53.784;10.440;2023-03-11T05:20:26;33.37;;;32.07;;
7154;SDS011;3619;53.784;10.440;2023-03-11T05:22:53;31.23;;;30.03;;
7154;SDS011;3619;53.784;10.440;2023-03-11T05:25:20;34.43;;;33.13;;
7154;SDS011;3619;53.784;10.440;2023-03-11T05:27:46;34.97;;;33.67;;
7154;SDS011;3619;53.784;10.440;2023-03-11T05:30:14;35.70;;;34.33;;
7154;SDS011;3619;53.784;10.440;2023-03-11T05:32:41;32.03;;;30.83;;
7154;SDS011;3619;53.784;10.440;2023-03-11T05:35:10;34.07;;;32.77;;
7154;SDS011;3619;53.784;10.440;2023-03-11T05:37:36;28.67;;;27.57;;
7154;SDS011;3619;53.784;10.440;2023-03-11T05:40:04;31.40;;;30.20;;
7154;SDS011;3619;53.784;10.440;2023-03-11T05:42:33;38.93;;;37.43;;
7154;SDS011;3619;53.784;10.440;2023-03-11T05:44:59;38.47;;;36.97;;
7154;SDS011;3619;53.784;10.440;2023-03-11T05:47:26;34.50;;;33.20;;
7154;SDS011;3619;53.784;10.440;2023-03-11T05:49:53;40.77;;;39.20;;
7154;SDS011;3619;53.784;10.440;2023-03-11T05:52:22;39.93;;;38.43;;
7154;SDS011;3619;53.784;10.440;2023-03-11T05:54:49;37.43;;;36.03;;
7154;SDS011;3619;53.784;10.440;2023-03-11T05:57:16;38.57;;;37.07;;
7154;SDS011;3619;53.784;10.440;2023-03-11T05:59:43;38.10;;;36.63;;
7154;SDS011;3619;53.784;10.440;2023-03-11T06:02:10;34.17;;;32.87;;
7154;SDS011;3619;53.784;10.440;2023-03-11T06:04:37;36.70;;;35.30;;
7154;SDS011;3619;53.784;10.440;2023-03-11T06:07:04;37.63;;;36.23;;
7154;SDS011;3619;53.784;10.440;2023-03-11T06:09:32;36.27;;;34.87;;
7154;SDS011;3619;53.784;10.440;2023-03-11T06:12:01;39.83;;;38.33;;
7154;SDS011;3619;53.784;10.440;2023-03-11T06:14:28;35.93;;;34.53;;
7154;SDS011;3619;53.784;10.440;2023-03-11T06:16:55;35.17;;;33.87;;
7154;SDS011;3619;53.784;10.440;2023-03-11T06:19:23;37.07;;;35.67;;
7154;SDS011;3619;53.784;10.440;2023-03-11T06:21:50;35.47;;;34.13;;
7154;SDS011;3619;53.784;10.440;2023-03-11T06:24:17;32.40;;;31.20;;
7154;SDS011;3619;53.784;10.440;2023-03-11T06:26:49;33.30;;;32.00;;
7154;SDS011;3619;53.784;10.440;2023-03-11T06:29:16;35.97;;;34.57;;
7154;SDS011;3619;53.784;10.440;2023-03-11T06:31:43;37.57;;;36.17;;
7154;SDS011;3619;53.784;10.440;2023-03-11T06:34:10;35.90;;;34.50;;
7154;SDS011;3619;53.784;10.440;2023-03-11T06:36:37;34.20;;;32.90;;
7154;SDS011;3619;53.784;10.440;2023-03-11T06:39:04;37.03;;;35.63;;
7154;SDS011;3619;53.784;10.440;2023-03-11T06:41:32;36.90;;;35.50;;
7154;SDS011;3619;53.784;10.440;2023-03-11T06:44:00;36.73;;;35.33;;
7154;SDS011;3619;53.784;10.440;2023-03-11T06:46:28;33.30;;;32.03;;
7154;SDS011;3619;53.784;10.440;2023-03-11T06:48:55;33.53;;;32.23;;
7154;SDS011;3619;53.784;10.440;2023-03-11T06:51:22;35.43;;;34.10;;
7154;SDS011;3619;53.784;10.440;2023-03-11T06:53:49;33.73;;;32.43;;
7154;SDS011;3619;53.784;10.440;2023-03-11T06:56:17;34.50;;;33.20;;
7154;SDS011;3619;53.784;10.440;2023-03-11T06:58:45;35.67;;;34.30;;
7154;SDS011;3619;53.784;10.440;2023-03-11T07:01:14;38.33;;;36.87;;
7154;SDS011;3619;53.784;10.440;2023-03-11T07:03:42;37.37;;;35.97;;
7154;SDS011;3619;53.784;10.440;2023-03-11T07:06:11;41.83;;;40.23;;
7154;SDS011;3619;53.784;10.440;2023-03-11T07:08:39;36.87;;;35.47;;
7154;SDS011;3619;53.784;10.440;2023-03-11T07:11:07;36.50;;;35.10;;
7154;SDS011;3619;53.784;10.440;2023-03-11T07:13:36;35.87;;;34.47;;
7154;SDS011;3619;53.784;10.440;2023-03-11T07:16:04;37.80;;;36.40;;
7154;SDS011;3619;53.784;10.440;2023-03-11T07:18:33;36.37;;;34.97;;
7154;SDS011;3619;53.784;10.440;2023-03-11T07:21:02;32.83;;;31.60;;
7154;SDS011;3619;53.784;10.440;2023-03-11T07:23:30;33.00;;;31.73;;
7154;SDS011;3619;53.784;10.440;2023-03-11T07:25:57;34.47;;;33.17;;
7154;SDS011;3619;53.784;10.440;2023-03-11T07:28:25;34.20;;;32.90;;
7154;SDS011;3619;53.784;10.440;2023-03-11T07:30:53;36.13;;;34.73;;
7154;SDS011;3619;53.784;10.440;2023-03-11T07:33:20;35.23;;;33.93;;
7154;SDS011;3619;53.784;10.440;2023-03-11T07:35:50;36.53;;;35.13;;
7154;SDS011;3619;53.784;10.440;2023-03-11T07:38:17;33.63;;;32.33;;
7154;SDS011;3619;53.784;10.440;2023-03-11T07:40:44;32.90;;;31.63;;
7154;SDS011;3619;53.784;10.440;2023-03-11T07:43:11;34.60;;;33.30;;
7154;SDS011;3619;53.784;10.440;2023-03-11T07:45:38;35.63;;;34.27;;
7154;SDS011;3619;53.784;10.440;2023-03-11T07:48:05;37.27;;;35.87;;
7154;SDS011;3619;53.784;10.440;2023-03-11T07:50:32;40.87;;;39.27;;
7154;SDS011;3619;53.784;10.440;2023-03-11T07:53:00;38.50;;;37.00;;
7154;SDS011;3619;53.784;10.440;2023-03-11T07:55:27;32.63;;;31.40;;
7154;SDS011;3619;53.784;10.440;2023-03-11T07:57:54;39.70;;;38.20;;
7154;SDS011;3619;53.784;10.440;2023-03-11T08:00:21;37.17;;;35.77;;
7154;SDS011;3619;53.784;10.440;2023-03-11T08:02:48;37.93;;;36.53;;
7154;SDS011;3619;53.784;10.440;2023-03-11T08:05:15;40.90;;;39.33;;
7154;SDS011;3619;53.784;10.440;2023-03-11T08:07:44;40.60;;;39.07;;
7154;SDS011;3619;53.784;10.440;2023-03-11T08:10:15;40.17;;;38.67;;
7154;SDS011;3619;53.784;10.440;2023-03-11T08:12:42;42.53;;;40.93;;
7154;SDS011;3619;53.784;10.440;2023-03-11T08:15:09;40.67;;;39.13;;
7154;SDS011;3619;53.784;10.440;2023-03-11T08:17:36;43.20;;;41.53;;
7154;SDS011;3619;53.784;10.440;2023-03-11T08:20:04;46.43;;;44.63;;
7154;SDS011;3619;53.784;10.440;2023-03-11T08:22:33;47.97;;;46.13;;
7154;SDS011;3619;53.784;10.440;2023-03-11T08:25:00;47.87;;;46.07;;
7154;SDS011;3619;53.784;10.440;2023-03-11T08:27:28;46.77;;;44.97;;
7154;SDS011;3619;53.784;10.440;2023-03-11T08:29:56;52.00;;;50.00;;
7154;SDS011;3619;53.784;10.440;2023-03-11T08:32:23;54.67;;;52.57;;
7154;SDS011;3619;53.784;10.440;2023-03-11T08:34:50;50.37;;;48.47;;
7154;SDS011;3619;53.784;10.440;2023-03-11T08:37:17;49.23;;;47.33;;
7154;SDS011;3619;53.784;10.440;2023-03-11T08:39:44;51.27;;;49.27;;
7154;SDS011;3619;53.784;10.440;2023-03-11T08:42:11;57.73;;;55.53;;
7154;SDS011;3619;53.784;10.440;2023-03-11T08:44:39;55.30;;;53.20;;
7154;SDS011;3619;53.784;10.440;2023-03-11T08:47:06;57.27;;;55.10;;
7154;SDS011;3619;53.784;10.440;2023-03-11T08:49:33;72.40;;;69.70;;
7154;SDS011;3619;53.784;10.440;2023-03-11T08:52:00;69.20;;;66.60;;
7154;SDS011;3619;53.784;10.440;2023-03-11T08:54:31;64.43;;;62.03;;
7154;SDS011;3619;53.784;10.440;2023-03-11T08:56:58;75.40;;;72.63;;
7154;SDS011;3619;53.784;10.440;2023-03-11T08:59:27;70.53;;;67.93;;
7154;SDS011;3619;53.784;10.440;2023-03-11T09:01:58;59.30;;;57.03;;
7154;SDS011;3619;53.784;10.440;2023-03-11T09:04:25;69.10;;;66.50;;
7154;SDS011;3619;53.784;10.440;2023-03-11T09:06:52;60.17;;;57.87;;
7154;SDS011;3619;53.784;10.440;2023-03-11T09:09:20;55.23;;;53.13;;
7154;SDS011;3619;53.784;10.440;2023-03-11T09:11:47;54.47;;;52.37;;
7154;SDS011;3619;53.784;10.440;2023-03-11T09:14:14;47.23;;;45.43;;
7154;SDS011;3619;53.784;10.440;2023-03-11T09:16:41;51.17;;;49.20;;
7154;SDS011;3619;53.784;10.440;2023-03-11T09:19:11;50.27;;;48.37;;
7154;SDS011;3619;53.784;10.440;2023-03-11T09:21:38;48.97;;;47.07;;
7154;SDS011;3619;53.784;10.440;2023-03-11T09:24:17;50.97;;;49.03;;
7154;SDS011;3619;53.784;10.440;2023-03-11T09:26:43;43.20;;;41.57;;
7154;SDS011;3619;53.784;10.440;2023-03-11T09:29:13;45.40;;;43.70;;
7154;SDS011;3619;53.784;10.440;2023-03-11T09:31:40;45.83;;;44.07;;
7154;SDS011;3619;53.784;10.440;2023-03-11T09:34:07;42.17;;;40.57;;
7154;SDS011;3619;53.784;10.440;2023-03-11T09:36:37;45.90;;;44.17;;
7154;SDS011;3619;53.784;10.440;2023-03-11T09:39:06;47.10;;;45.30;;
7154;SDS011;3619;53.784;10.440;2023-03-11T09:41:34;50.40;;;48.50;;
7154;SDS011;3619;53.784;10.440;2023-03-11T09:44:10;42.07;;;40.47;;
7154;SDS011;3619;53.784;10.440;2023-03-11T09:49:39;40.47;;;38.93;;
7154;SDS011;3619;53.784;10.440;2023-03-11T09:52:15;40.50;;;38.97;;
7154;SDS011;3619;53.784;10.440;2023-03-11T09:54:44;37.90;;;36.47;;
7154;SDS011;3619;53.784;10.440;2023-03-11T09:57:14;39.93;;;38.43;;
7154;SDS011;3619;53.784;10.440;2023-03-11T09:59:44;39.57;;;38.07;;
7154;SDS011;3619;53.784;10.440;2023-03-11T10:02:14;34.90;;;33.60;;
7154;SDS011;3619;53.784;10.440;2023-03-11T10:04:44;38.93;;;37.43;;
7154;SDS011;3619;53.784;10.440;2023-03-11T10:07:22;35.53;;;34.20;;
7154;SDS011;3619;53.784;10.440;2023-03-11T10:09:53;36.90;;;35.43;;
7154;SDS011;3619;53.784;10.440;2023-03-11T10:12:25;28.27;;;27.17;;
7154;SDS011;3619;53.784;10.440;2023-03-11T10:15:11;31.03;;;29.83;;
7154;SDS011;3619;53.784;10.440;2023-03-11T10:17:49;28.17;;;27.07;;
7154;SDS011;3619;53.784;10.440;2023-03-11T10:20:26;24.30;;;23.40;;
7154;SDS011;3619;53.784;10.440;2023-03-11T10:23:04;24.10;;;23.20;;
7154;SDS011;3619;53.784;10.440;2023-03-11T10:25:44;21.60;;;20.80;;
7154;SDS011;3619;53.784;10.440;2023-03-11T10:28:23;22.60;;;21.73;;
7154;SDS011;3619;53.784;10.440;2023-03-11T10:30:54;25.23;;;24.27;;
7154;SDS011;3619;53.784;10.440;2023-03-11T10:33:27;17.47;;;16.77;;
7154;SDS011;3619;53.784;10.440;2023-03-11T10:36:03;18.93;;;18.23;;
7154;SDS011;3619;53.784;10.440;2023-03-11T10:38:33;15.27;;;14.67;;
7154;SDS011;3619;53.784;10.440;2023-03-11T10:41:04;16.90;;;16.30;;
7154;SDS011;3619;53.784;10.440;2023-03-11T10:43:38;15.93;;;15.33;;
7154;SDS011;3619;53.784;10.440;2023-03-11T10:46:11;15.23;;;14.63;;
7154;SDS011;3619;53.784;10.440;2023-03-11T10:48:49;12.60;;;12.10;;
7154;SDS011;3619;53.784;10.440;2023-03-11T10:51:17;11.90;;;11.50;;
7154;SDS011;3619;53.784;10.440;2023-03-11T10:53:48;14.37;;;13.87;;
7154;SDS011;3619;53.784;10.440;2023-03-11T10:56:24;15.47;;;14.87;;
7154;SDS011;3619;53.784;10.440;2023-03-11T10:58:55;14.10;;;13.60;;
7154;SDS011;3619;53.784;10.440;2023-03-11T11:01:23;10.03;;;9.63;;
7154;SDS011;3619;53.784;10.440;2023-03-11T11:03:50;13.47;;;12.97;;
7154;SDS011;3619;53.784;10.440;2023-03-11T11:06:24;14.00;;;13.50;;
7154;SDS011;3619;53.784;10.440;2023-03-11T11:09:04;12.80;;;12.30;;
7154;SDS011;3619;53.784;10.440;2023-03-11T11:11:37;13.73;;;13.23;;
7154;SDS011;3619;53.784;10.440;2023-03-11T11:14:08;13.27;;;12.77;;
7154;SDS011;3619;53.784;10.440;2023-03-11T11:16:35;10.87;;;10.47;;
7154;SDS011;3619;53.784;10.440;2023-03-11T11:19:03;11.17;;;10.77;;
7154;SDS011;3619;53.784;10.440;2023-03-11T11:21:35;10.83;;;10.43;;
7154;SDS011;3619;53.784;10.440;2023-03-11T11:24:09;9.27;;;8.97;;
7154;SDS011;3619;53.784;10.440;2023-03-11T11:29:29;9.40;;;9.10;;
7154;SDS011;3619;53.784;10.440;2023-03-11T11:32:09;33.57;;;16.53;;
7154;SDS011;3619;53.784;10.440;2023-03-11T11:34:53;6.57;;;6.37;;
7154;SDS011;3619;53.784;10.440;2023-03-11T11:37:24;7.80;;;7.50;;
7154;SDS011;3619;53.784;10.440;2023-03-11T11:40:02;6.90;;;6.70;;
7154;SDS011;3619;53.784;10.440;2023-03-11T11:42:35;5.77;;;5.57;;
7154;SDS011;3619;53.784;10.440;2023-03-11T11:45:05;5.80;;;5.60;;
7154;SDS011;3619;53.784;10.440;2023-03-11T11:47:40;5.37;;;5.17;;
7154;SDS011;3619;53.784;10.440;2023-03-11T11:50:13;7.30;;;7.00;;
7154;SDS011;3619;53.784;10.440;2023-03-11T11:52:46;4.90;;;4.70;;
7154;SDS011;3619;53.784;10.440;2023-03-11T11:55:21;5.30;;;5.10;;
7154;SDS011;3619;53.784;10.440;2023-03-11T11:57:50;5.97;;;5.77;;
7154;SDS011;3619;53.784;10.440;2023-03-11T12:00:18;5.47;;;5.27;;
7154;SDS011;3619;53.784;10.440;2023-03-11T12:02:56;5.53;;;5.33;;
7154;SDS011;3619;53.784;10.440;2023-03-11T12:05:34;5.20;;;5.00;;
7154;SDS011;3619;53.784;10.440;2023-03-11T12:08:09;4.33;;;4.23;;
7154;SDS011;3619;53.784;10.440;2023-03-11T12:10:44;3.77;;;3.67;;
7154;SDS011;3619;53.784;10.440;2023-03-11T12:13:24;4.70;;;4.50;;
7154;SDS011;3619;53.784;10.440;2023-03-11T12:16:21;4.60;;;4.40;;
7154;SDS011;3619;53.784;10.440;2023-03-11T12:18:57;5.37;;;5.17;;
7154;SDS011;3619;53.784;10.440;2023-03-11T12:21:33;4.07;;;3.97;;
7154;SDS011;3619;53.784;10.440;2023-03-11T12:24:18;4.60;;;4.40;;
7154;SDS011;3619;53.784;10.440;2023-03-11T12:27:00;4.07;;;3.97;;
7154;SDS011;3619;53.784;10.440;2023-03-11T12:29:37;3.83;;;3.73;;
7154;SDS011;3619;53.784;10.440;2023-03-11T12:32:07;4.80;;;4.60;;
7154;SDS011;3619;53.784;10.440;2023-03-11T12:34:41;4.03;;;3.93;;
7154;SDS011;3619;53.784;10.440;2023-03-11T12:37:11;5.13;;;4.93;;
7154;SDS011;3619;53.784;10.440;2023-03-11T12:39:41;3.87;;;3.77;;
7154;SDS011;3619;53.784;10.440;2023-03-11T12:42:16;3.13;;;3.03;;
7154;SDS011;3619;53.784;10.440;2023-03-11T12:44:46;3.07;;;2.97;;
7154;SDS011;3619;53.784;10.440;2023-03-11T12:49:51;3.80;;;3.70;;
7154;SDS011;3619;53.784;10.440;2023-03-11T12:52:21;4.07;;;3.97;;
7154;SDS011;3619;53.784;10.440;2023-03-11T13:01:16;3.00;;;2.90;;
7154;SDS011;3619;53.784;10.440;2023-03-11T13:03:59;3.47;;;3.37;;
7154;SDS011;3619;53.784;10.440;2023-03-11T13:06:46;3.23;;;3.13;;
7154;SDS011;3619;53.784;10.440;2023-03-11T13:09:44;2.50;;;2.40;;
7154;SDS011;3619;53.784;10.440;2023-03-11T13:17:56;2.67;;;2.57;;
7154;SDS011;3619;53.784;10.440;2023-03-11T13:20:43;2.97;;;2.87;;
7154;SDS011;3619;53.784;10.440;2023-03-11T13:23:28;2.73;;;2.63;;
7154;SDS011;3619;53.784;10.440;2023-03-11T13:26:04;3.00;;;2.90;;
7154;SDS011;3619;53.784;10.440;2023-03-11T13:28:50;2.63;;;2.53;;
7154;SDS011;3619;53.784;10.440;2023-03-11T13:31:55;2.67;;;2.57;;
7154;SDS011;3619;53.784;10.440;2023-03-11T13:34:39;2.90;;;2.80;;
7154;SDS011;3619;53.784;10.440;2023-03-11T13:37:20;2.57;;;2.47;;
7154;SDS011;3619;53.784;10.440;2023-03-11T13:39:58;2.43;;;2.33;;
7154;SDS011;3619;53.784;10.440;2023-03-11T13:42:41;2.67;;;2.57;;
7154;SDS011;3619;53.784;10.440;2023-03-11T13:45:13;2.43;;;2.33;;
7154;SDS011;3619;53.784;10.440;2023-03-11T13:47:51;2.10;;;2.00;;
7154;SDS011;3619;53.784;10.440;2023-03-11T13:50:23;2.27;;;2.17;;
7154;SDS011;3619;53.784;10.440;2023-03-11T13:52:53;2.93;;;2.83;;
7154;SDS011;3619;53.784;10.440;2023-03-11T13:55:24;2.43;;;2.33;;
7154;SDS011;3619;53.784;10.440;2023-03-11T13:57:56;3.00;;;2.90;;
7154;SDS011;3619;53.784;10.440;2023-03-11T14:00:24;2.60;;;2.50;;
7154;SDS011;3619;53.784;10.440;2023-03-11T14:02:54;3.20;;;3.10;;
7154;SDS011;3619;53.784;10.440;2023-03-11T14:05:23;2.57;;;2.47;;
7154;SDS011;3619;53.784;10.440;2023-03-11T14:07:51;2.73;;;2.63;;
7154;SDS011;3619;53.784;10.440;2023-03-11T14:10:20;2.30;;;2.20;;
7154;SDS011;3619;53.784;10.440;2023-03-11T14:12:50;2.73;;;2.63;;
7154;SDS011;3619;53.784;10.440;2023-03-11T14:15:18;2.37;;;2.27;;
7154;SDS011;3619;53.784;10.440;2023-03-11T14:17:49;2.43;;;2.33;;
7154;SDS011;3619;53.784;10.440;2023-03-11T14:20:18;2.63;;;2.53;;
7154;SDS011;3619;53.784;10.440;2023-03-11T14:22:49;2.40;;;2.30;;
7154;SDS011;3619;53.784;10.440;2023-03-11T14:25:19;2.23;;;2.13;;
7154;SDS011;3619;53.784;10.440;2023-03-11T14:27:50;2.13;;;2.03;;
7154;SDS011;3619;53.784;10.440;2023-03-11T14:30:21;2.43;;;2.33;;
7154;SDS011;3619;53.784;10.440;2023-03-11T14:32:54;2.20;;;2.10;;
7154;SDS011;3619;53.784;10.440;2023-03-11T14:35:24;2.10;;;2.00;;
7154;SDS011;3619;53.784;10.440;2023-03-11T14:37:53;2.10;;;2.00;;
7154;SDS011;3619;53.784;10.440;2023-03-11T14:40:25;2.37;;;2.27;;
7154;SDS011;3619;53.784;10.440;2023-03-11T14:42:55;2.10;;;2.00;;
7154;SDS011;3619;53.784;10.440;2023-03-11T14:45:25;1.80;;;1.80;;
7154;SDS011;3619;53.784;10.440;2023-03-11T14:47:56;2.40;;;2.30;;
7154;SDS011;3619;53.784;10.440;2023-03-11T14:50:29;2.20;;;2.10;;
7154;SDS011;3619;53.784;10.440;2023-03-11T14:52:59;2.47;;;2.37;;
7154;SDS011;3619;53.784;10.440;2023-03-11T14:55:31;2.10;;;2.00;;
7154;SDS011;3619;53.784;10.440;2023-03-11T14:58:00;2.23;;;2.13;;
7154;SDS011;3619;53.784;10.440;2023-03-11T15:00:32;2.83;;;2.73;;
7154;SDS011;3619;53.784;10.440;2023-03-11T15:03:03;2.37;;;2.27;;
7154;SDS011;3619;53.784;10.440;2023-03-11T15:05:49;2.27;;;2.17;;
7154;SDS011;3619;53.784;10.440;2023-03-11T15:08:19;2.40;;;2.30;;
7154;SDS011;3619;53.784;10.440;2023-03-11T15:11:02;2.60;;;2.50;;
7154;SDS011;3619;53.784;10.440;2023-03-11T15:13:31;1.90;;;1.87;;
7154;SDS011;3619;53.784;10.440;2023-03-11T15:16:01;2.40;;;2.30;;
7154;SDS011;3619;53.784;10.440;2023-03-11T15:18:46;2.33;;;2.23;;
7154;SDS011;3619;53.784;10.440;2023-03-11T15:21:16;2.30;;;2.20;;
7154;SDS011;3619;53.784;10.440;2023-03-11T15:23:45;2.40;;;2.30;;
7154;SDS011;3619;53.784;10.440;2023-03-11T15:26:18;2.70;;;2.60;;